createdAt,value
2018-10-06T00:00:37.016Z,8.22
2018-10-06T00:03:06.232Z,8.20
2018-10-06T00:05:35.484Z,8.08
2018-10-06T00:08:04.715Z,7.95
2018-10-06T00:10:33.933Z,7.89
2018-10-06T00:13:03.164Z,7.80
2018-10-06T00:15:32.376Z,7.78
2018-10-06T00:18:01.576Z,7.86
2018-10-06T00:20:30.808Z,7.99
2018-10-06T00:23:00.004Z,8.00
2018-10-06T00:25:29.231Z,7.98
2018-10-06T00:27:58.465Z,7.95
2018-10-06T00:30:27.686Z,7.91
2018-10-06T00:32:56.973Z,7.86
2018-10-06T00:35:26.256Z,7.81
2018-10-06T00:37:55.718Z,7.79
2018-10-06T00:40:24.931Z,7.76
2018-10-06T00:42:54.152Z,7.84
2018-10-06T00:45:23.394Z,7.90
2018-10-06T00:47:52.598Z,7.82
2018-10-06T00:50:21.840Z,7.70
2018-10-06T00:52:51.056Z,7.64
2018-10-06T00:55:20.363Z,7.60
2018-10-06T00:57:49.577Z,7.65
2018-10-06T01:00:18.836Z,7.74
2018-10-06T01:02:48.070Z,7.83
2018-10-06T01:05:17.471Z,7.93
2018-10-06T01:07:46.709Z,8.00
2018-10-06T01:10:15.925Z,8.08
2018-10-06T01:12:45.141Z,8.06
2018-10-06T01:15:14.327Z,7.96
2018-10-06T01:17:43.553Z,7.83
2018-10-06T01:20:12.812Z,7.71
2018-10-06T01:22:42.076Z,7.66
2018-10-06T01:25:11.280Z,7.80
2018-10-06T01:27:40.537Z,7.93
2018-10-06T01:30:09.788Z,7.99
2018-10-06T01:32:39.008Z,8.00
2018-10-06T01:35:08.213Z,7.93
2018-10-06T01:37:45.039Z,7.79
2018-10-06T01:40:14.233Z,7.78
2018-10-06T01:42:44.228Z,7.76
2018-10-06T01:45:13.420Z,7.75
2018-10-06T01:47:42.609Z,7.66
2018-10-06T01:50:11.848Z,7.59
2018-10-06T01:52:41.046Z,7.49
2018-10-06T01:55:10.208Z,7.49
2018-10-06T01:57:39.397Z,7.50
2018-10-06T02:00:08.673Z,7.49
2018-10-06T02:02:37.857Z,7.51
2018-10-06T02:05:07.040Z,7.50
2018-10-06T02:07:36.296Z,7.38
2018-10-06T02:10:05.507Z,7.32
2018-10-06T02:12:34.696Z,7.25
2018-10-06T02:15:03.971Z,7.25
2018-10-06T02:17:33.175Z,7.20
2018-10-06T02:20:02.374Z,7.18
2018-10-06T02:22:31.592Z,7.13
2018-10-06T02:25:00.772Z,7.14
2018-10-06T02:27:29.986Z,7.11
2018-10-06T02:29:59.235Z,7.08
2018-10-06T02:32:28.473Z,7.05
2018-10-06T02:34:58.019Z,7.03
2018-10-06T02:37:27.444Z,7.01
2018-10-06T02:39:56.676Z,7.00
2018-10-06T02:42:25.903Z,6.95
2018-10-06T02:44:55.119Z,6.98
2018-10-06T02:47:24.334Z,6.98
2018-10-06T02:49:53.547Z,6.99
2018-10-06T02:52:22.898Z,6.93
2018-10-06T02:54:52.202Z,6.89
2018-10-06T02:57:21.419Z,6.85
2018-10-06T02:59:50.662Z,6.83
2018-10-06T03:02:19.884Z,6.72
2018-10-06T03:04:49.141Z,6.69
2018-10-06T03:07:18.363Z,6.63
2018-10-06T03:09:47.587Z,6.55
2018-10-06T03:12:16.788Z,6.49
2018-10-06T03:14:45.998Z,6.48
2018-10-06T03:17:15.200Z,6.38
2018-10-06T03:19:44.425Z,6.40
2018-10-06T03:22:13.727Z,6.38
2018-10-06T03:24:42.959Z,6.31
2018-10-06T03:27:12.176Z,6.25
2018-10-06T03:29:41.393Z,6.18
2018-10-06T03:32:10.595Z,6.24
2018-10-06T03:34:39.815Z,6.19
2018-10-06T03:37:09.070Z,6.21
2018-10-06T03:39:38.300Z,6.28
2018-10-06T03:42:07.560Z,6.34
2018-10-06T03:44:36.799Z,6.40
2018-10-06T03:47:06.151Z,6.53
2018-10-06T03:49:35.372Z,6.77
2018-10-06T03:52:04.583Z,6.96
2018-10-06T03:54:33.965Z,7.12
2018-10-06T03:57:03.555Z,7.23
2018-10-06T03:59:33.043Z,7.21
2018-10-06T04:02:02.477Z,7.15
2018-10-06T04:04:31.820Z,7.06
2018-10-06T04:07:01.138Z,6.99
2018-10-06T04:09:30.359Z,6.90
2018-10-06T04:11:59.582Z,6.82
2018-10-06T04:14:28.839Z,6.77
2018-10-06T04:16:58.126Z,6.76
2018-10-06T04:19:27.344Z,6.71
2018-10-06T04:21:56.643Z,6.70
2018-10-06T04:24:25.889Z,6.71
2018-10-06T04:26:55.103Z,6.72
2018-10-06T04:29:24.386Z,6.79
2018-10-06T04:31:53.607Z,6.85
2018-10-06T04:34:22.828Z,6.88
2018-10-06T04:36:52.143Z,6.97
2018-10-06T04:39:38.143Z,7.00
2018-10-06T04:42:07.555Z,7.00
2018-10-06T04:44:36.907Z,7.02
2018-10-06T04:47:06.239Z,7.01
2018-10-06T04:49:35.468Z,7.02
2018-10-06T04:52:04.770Z,7.02
2018-10-06T04:54:34.065Z,6.97
2018-10-06T04:57:03.275Z,6.92
2018-10-06T04:59:32.480Z,6.87
2018-10-06T05:02:01.680Z,6.83
2018-10-06T05:04:30.917Z,6.78
2018-10-06T05:07:00.144Z,6.71
2018-10-06T05:09:29.351Z,6.74
2018-10-06T05:11:58.549Z,6.66
2018-10-06T05:14:27.741Z,6.61
2018-10-06T05:16:56.940Z,6.58
2018-10-06T05:19:26.168Z,6.58
2018-10-06T05:21:55.407Z,6.60
2018-10-06T05:24:24.608Z,6.65
2018-10-06T05:26:53.814Z,6.65
2018-10-06T05:29:23.022Z,6.65
2018-10-06T05:31:52.256Z,6.61
2018-10-06T05:34:21.678Z,6.59
2018-10-06T05:36:51.007Z,6.51
2018-10-06T05:39:20.234Z,6.54
2018-10-06T05:41:49.469Z,6.61
2018-10-06T05:44:18.689Z,6.69
2018-10-06T05:46:47.899Z,6.74
2018-10-06T05:49:17.102Z,6.83
2018-10-06T05:51:46.324Z,6.91
2018-10-06T05:54:15.543Z,6.97
2018-10-06T05:56:44.759Z,7.05
2018-10-06T05:59:13.982Z,7.13
2018-10-06T06:01:43.187Z,7.22
2018-10-06T06:04:12.433Z,7.27
2018-10-06T06:06:41.651Z,7.40
2018-10-06T06:09:10.866Z,7.54
2018-10-06T06:11:40.123Z,7.70
2018-10-06T06:14:09.301Z,7.87
2018-10-06T06:16:38.509Z,8.07
2018-10-06T06:19:07.727Z,8.29
2018-10-06T06:21:36.961Z,8.50
2018-10-06T06:24:06.176Z,8.73
2018-10-06T06:26:35.377Z,8.83
2018-10-06T06:29:04.577Z,8.86
2018-10-06T06:31:33.819Z,8.90
2018-10-06T06:34:03.050Z,8.99
2018-10-06T06:36:32.255Z,9.07
2018-10-06T06:39:01.464Z,9.53
2018-10-06T06:41:30.781Z,10.03
2018-10-06T06:44:00.030Z,10.38
2018-10-06T06:46:29.240Z,10.59
2018-10-06T06:48:58.455Z,10.67
2018-10-06T06:51:27.679Z,10.79
2018-10-06T06:53:56.885Z,10.88
2018-10-06T06:56:26.149Z,10.99
2018-10-06T06:58:55.407Z,10.99
2018-10-06T07:01:24.677Z,11.09
2018-10-06T07:03:53.893Z,11.10
2018-10-06T07:06:23.164Z,11.17
2018-10-06T07:08:52.373Z,11.28
2018-10-06T07:11:21.584Z,11.38
2018-10-06T07:13:50.897Z,11.41
2018-10-06T07:16:20.117Z,11.41
2018-10-06T07:18:49.387Z,11.43
2018-10-06T07:21:18.603Z,11.51
2018-10-06T07:23:47.820Z,11.56
2018-10-06T07:26:17.055Z,11.54
2018-10-06T07:28:46.277Z,11.55
2018-10-06T07:31:15.468Z,11.63
2018-10-06T07:33:44.679Z,11.67
2018-10-06T07:36:13.948Z,11.80
2018-10-06T07:38:43.171Z,11.76
2018-10-06T07:41:12.449Z,11.82
2018-10-06T07:43:41.688Z,11.74
2018-10-06T07:46:10.948Z,11.79
2018-10-06T07:48:40.183Z,11.99
2018-10-06T07:51:09.407Z,12.04
2018-10-06T07:53:38.779Z,12.12
2018-10-06T07:56:08.080Z,12.30
2018-10-06T07:58:37.352Z,12.40
2018-10-06T08:01:06.612Z,12.51
2018-10-06T08:03:35.915Z,12.93
2018-10-06T08:06:05.198Z,13.17
2018-10-06T08:08:34.527Z,13.71
2018-10-06T08:11:03.756Z,14.14
2018-10-06T08:13:32.992Z,14.54
2018-10-06T08:16:02.233Z,15.23
2018-10-06T08:18:31.468Z,15.78
2018-10-06T08:21:00.708Z,16.29
2018-10-06T08:23:29.965Z,16.75
2018-10-06T08:25:59.200Z,17.33
2018-10-06T08:28:28.443Z,17.57
2018-10-06T08:30:57.668Z,17.95
2018-10-06T08:33:26.940Z,18.20
2018-10-06T08:35:56.172Z,18.10
2018-10-06T08:38:25.419Z,17.71
2018-10-06T08:40:54.615Z,18.29
2018-10-06T08:43:23.847Z,18.56
2018-10-06T08:45:53.073Z,18.56
2018-10-06T08:48:22.317Z,19.37
2018-10-06T08:50:51.531Z,18.90
2018-10-06T08:53:20.791Z,19.43
2018-10-06T08:55:50.051Z,19.48
2018-10-06T08:58:19.249Z,20.20
2018-10-06T09:00:48.475Z,20.42
2018-10-06T09:03:17.687Z,20.34
2018-10-06T09:05:46.901Z,20.79
2018-10-06T09:08:16.204Z,21.05
2018-10-06T09:10:45.452Z,20.79
2018-10-06T09:13:14.638Z,20.37
2018-10-06T09:15:43.851Z,20.90
2018-10-06T09:18:13.080Z,20.86
2018-10-06T09:20:42.346Z,20.68
2018-10-06T09:23:11.654Z,21.17
2018-10-06T09:25:40.889Z,21.83
2018-10-06T09:28:10.127Z,21.57
2018-10-06T09:30:39.309Z,21.81
2018-10-06T09:33:08.555Z,21.93
2018-10-06T09:35:37.767Z,22.40
2018-10-06T09:38:07.048Z,22.41
2018-10-06T09:40:36.243Z,22.59
2018-10-06T09:43:05.456Z,22.40
2018-10-06T09:45:34.727Z,22.24
2018-10-06T09:48:04.017Z,22.31
2018-10-06T09:50:33.224Z,22.95
2018-10-06T09:53:02.451Z,22.19
2018-10-06T09:55:31.699Z,22.44
2018-10-06T09:58:00.924Z,23.01
2018-10-06T10:00:35.354Z,23.06
2018-10-06T10:03:09.831Z,23.21
2018-10-06T10:05:44.530Z,23.12
2018-10-06T10:08:13.733Z,23.35
2018-10-06T10:10:42.933Z,23.02
2018-10-06T10:13:12.149Z,22.90
2018-10-06T10:15:41.378Z,23.17
2018-10-06T10:18:10.992Z,23.54
2018-10-06T10:20:40.088Z,23.18
2018-10-06T10:23:09.657Z,23.98
2018-10-06T10:25:39.130Z,24.25
2018-10-06T10:28:08.341Z,23.96
2018-10-06T10:30:37.557Z,24.05
2018-10-06T10:33:06.853Z,23.96
2018-10-06T10:35:36.095Z,23.28
2018-10-06T10:38:05.279Z,23.39
2018-10-06T10:40:34.520Z,24.20
2018-10-06T10:43:03.745Z,24.40
2018-10-06T10:45:32.999Z,24.77
2018-10-06T10:48:02.237Z,24.69
2018-10-06T10:50:31.536Z,24.65
2018-10-06T10:53:00.756Z,25.35
2018-10-06T10:55:30.080Z,25.44
2018-10-06T10:57:59.320Z,25.75
2018-10-06T11:00:28.655Z,25.38
2018-10-06T11:02:57.882Z,25.31
2018-10-06T11:05:27.112Z,25.03
2018-10-06T11:07:56.335Z,24.29
2018-10-06T11:10:25.587Z,24.35
2018-10-06T11:12:54.849Z,24.96
2018-10-06T11:15:24.149Z,24.94
2018-10-06T11:17:53.524Z,24.79
2018-10-06T11:20:22.763Z,24.52
2018-10-06T11:22:51.990Z,24.17
2018-10-06T11:25:21.229Z,24.43
2018-10-06T11:27:50.455Z,24.53
2018-10-06T11:30:19.761Z,24.14
2018-10-06T11:32:49.227Z,23.37
2018-10-06T11:35:18.869Z,23.38
2018-10-06T11:37:48.271Z,23.47
2018-10-06T11:40:17.474Z,23.87
2018-10-06T11:42:46.724Z,23.71
2018-10-06T11:45:16.029Z,23.79
2018-10-06T11:47:45.324Z,23.73
2018-10-06T11:50:14.631Z,23.61
2018-10-06T11:52:43.831Z,23.39
2018-10-06T11:55:13.185Z,23.19
2018-10-06T11:57:42.436Z,22.84
2018-10-06T12:00:11.865Z,22.18
2018-10-06T12:02:41.064Z,22.20
2018-10-06T12:05:10.315Z,22.93
2018-10-06T12:07:39.957Z,23.29
2018-10-06T12:10:09.691Z,23.99
2018-10-06T12:12:38.972Z,23.96
2018-10-06T12:15:08.260Z,23.61
2018-10-06T12:17:37.544Z,22.97
2018-10-06T12:20:06.837Z,23.37
2018-10-06T12:22:36.079Z,24.09
2018-10-06T12:25:05.462Z,24.98
2018-10-06T12:27:34.747Z,25.96
2018-10-06T12:30:04.012Z,26.49
2018-10-06T12:32:33.286Z,26.65
2018-10-06T12:35:02.697Z,25.36
2018-10-06T12:37:32.012Z,25.42
2018-10-06T12:40:01.309Z,24.44
2018-10-06T12:42:30.552Z,24.00
2018-10-06T12:44:59.877Z,23.67
2018-10-06T12:47:29.359Z,23.10
2018-10-06T12:49:58.631Z,23.79
2018-10-06T12:52:27.892Z,23.66
2018-10-06T12:54:57.178Z,23.86
2018-10-06T12:57:26.418Z,24.30
2018-10-06T12:59:55.735Z,24.67
2018-10-06T13:02:24.995Z,24.99
2018-10-06T13:04:54.243Z,25.96
2018-10-06T13:07:23.568Z,26.74
2018-10-06T13:09:52.892Z,26.46
2018-10-06T13:12:22.305Z,26.07
2018-10-06T13:14:51.559Z,26.36
2018-10-06T13:17:20.791Z,25.88
2018-10-06T13:19:50.036Z,26.08
2018-10-06T13:22:19.364Z,26.38
2018-10-06T13:24:48.682Z,26.34
2018-10-06T13:27:17.967Z,26.13
2018-10-06T13:29:47.271Z,26.29
2018-10-06T13:32:16.643Z,26.05
2018-10-06T13:34:45.936Z,25.05
2018-10-06T13:37:15.235Z,24.26
2018-10-06T13:39:44.553Z,23.60
2018-10-06T13:42:13.831Z,22.83
2018-10-06T13:44:43.217Z,22.31
2018-10-06T13:47:12.497Z,22.21
2018-10-06T13:49:41.832Z,22.15
2018-10-06T13:52:11.248Z,22.04
2018-10-06T13:54:40.528Z,21.90
2018-10-06T13:57:10.700Z,21.87
2018-10-06T13:59:39.973Z,21.99
2018-10-06T14:02:09.287Z,22.31
2018-10-06T14:04:38.589Z,22.82
2018-10-06T14:07:07.909Z,22.92
2018-10-06T14:09:37.165Z,22.65
2018-10-06T14:12:06.533Z,22.43
2018-10-06T14:14:35.800Z,22.74
2018-10-06T14:17:05.066Z,22.64
2018-10-06T14:19:34.348Z,22.42
2018-10-06T14:22:03.689Z,22.16
2018-10-06T14:24:32.950Z,21.94
2018-10-06T14:27:02.376Z,21.95
2018-10-06T14:29:31.630Z,21.89
2018-10-06T14:32:00.915Z,21.79
2018-10-06T14:34:30.164Z,21.86
2018-10-06T14:36:59.471Z,21.99
2018-10-06T14:39:28.761Z,21.95
2018-10-06T14:41:58.153Z,21.90
2018-10-06T14:44:27.519Z,21.92
2018-10-06T14:46:56.700Z,22.29
2018-10-06T14:49:25.916Z,22.46
2018-10-06T14:51:55.180Z,22.44
2018-10-06T14:54:24.418Z,22.47
2018-10-06T14:56:53.698Z,22.43
2018-10-06T14:59:22.880Z,22.36
2018-10-06T15:01:52.151Z,22.25
2018-10-06T15:04:21.461Z,22.10
2018-10-06T15:06:50.718Z,21.93
2018-10-06T15:09:20.072Z,21.72
2018-10-06T15:11:49.344Z,21.57
2018-10-06T15:14:18.640Z,21.44
2018-10-06T15:16:47.843Z,21.45
2018-10-06T15:19:17.085Z,21.41
2018-10-06T15:21:46.401Z,21.31
2018-10-06T15:24:15.633Z,21.95
2018-10-06T15:26:44.836Z,22.54
2018-10-06T15:29:14.083Z,22.71
2018-10-06T15:31:43.328Z,22.50
2018-10-06T15:34:12.653Z,22.01
2018-10-06T15:36:41.959Z,21.54
2018-10-06T15:39:11.219Z,21.10
2018-10-06T15:41:40.437Z,20.75
2018-10-06T15:44:09.681Z,20.42
2018-10-06T15:46:39.145Z,20.14
2018-10-06T15:49:08.475Z,19.93
2018-10-06T15:51:37.682Z,19.77
2018-10-06T15:54:07.147Z,19.56
2018-10-06T15:56:36.435Z,19.29
2018-10-06T15:59:05.732Z,19.12
2018-10-06T16:01:34.973Z,19.06
2018-10-06T16:04:04.203Z,18.87
2018-10-06T16:06:33.488Z,18.65
2018-10-06T16:09:02.716Z,18.48
2018-10-06T16:11:31.928Z,18.28
2018-10-06T16:14:01.164Z,18.11
2018-10-06T16:16:30.372Z,17.98
2018-10-06T16:18:59.600Z,17.88
2018-10-06T16:21:28.867Z,17.73
2018-10-06T16:23:58.054Z,17.55
2018-10-06T16:26:27.294Z,17.44
2018-10-06T16:28:56.521Z,17.38
2018-10-06T16:31:25.723Z,17.27
2018-10-06T16:33:55.002Z,17.15
2018-10-06T16:36:24.281Z,17.08
2018-10-06T16:38:53.537Z,17.08
2018-10-06T16:41:22.767Z,17.13
2018-10-06T16:43:51.922Z,17.06
2018-10-06T16:46:21.204Z,17.00
2018-10-06T16:48:50.412Z,16.95
2018-10-06T16:51:19.629Z,16.96
2018-10-06T16:53:48.826Z,16.94
2018-10-06T16:56:18.431Z,16.93
2018-10-06T16:58:47.652Z,16.86
2018-10-06T17:01:17.094Z,16.82
2018-10-06T17:03:46.372Z,16.83
2018-10-06T17:06:15.748Z,16.80
2018-10-06T17:08:45.105Z,16.75
2018-10-06T17:11:14.514Z,16.63
2018-10-06T17:13:43.825Z,16.54
2018-10-06T17:16:13.039Z,16.56
2018-10-06T17:18:42.340Z,16.59
2018-10-06T17:21:11.535Z,16.60
2018-10-06T17:23:40.742Z,16.63
2018-10-06T17:26:09.958Z,16.55
2018-10-06T17:28:39.169Z,16.53
2018-10-06T17:31:08.484Z,16.42
2018-10-06T17:33:37.670Z,16.34
2018-10-06T17:36:06.924Z,16.20
2018-10-06T17:38:36.291Z,16.12
2018-10-06T17:41:05.551Z,16.11
2018-10-06T17:43:34.839Z,16.09
2018-10-06T17:46:04.153Z,16.11
2018-10-06T17:48:33.405Z,15.97
2018-10-06T17:51:02.654Z,15.84
2018-10-06T17:53:31.971Z,15.72
2018-10-06T17:56:01.235Z,15.61
2018-10-06T17:58:30.482Z,15.49
2018-10-06T18:00:59.725Z,15.41
2018-10-06T18:03:28.957Z,15.36
2018-10-06T18:05:58.271Z,15.28
2018-10-06T18:08:27.627Z,15.17
2018-10-06T18:10:56.872Z,15.17
2018-10-06T18:13:26.110Z,15.28
2018-10-06T18:15:55.425Z,15.25
2018-10-06T18:18:24.820Z,15.16
2018-10-06T18:20:54.251Z,15.09
2018-10-06T18:23:23.470Z,15.05
2018-10-06T18:25:52.751Z,15.04
2018-10-06T18:28:21.971Z,15.07
2018-10-06T18:30:51.235Z,15.11
2018-10-06T18:33:20.485Z,15.08
2018-10-06T18:35:49.809Z,15.08
2018-10-06T18:38:19.043Z,14.99
2018-10-06T18:40:48.276Z,14.94
2018-10-06T18:43:17.554Z,14.85
2018-10-06T18:45:46.776Z,14.73
2018-10-06T18:48:16.056Z,14.77
2018-10-06T18:50:45.269Z,14.75
2018-10-06T18:53:14.661Z,14.67
2018-10-06T18:55:44.037Z,14.66
2018-10-06T18:58:13.263Z,14.65
2018-10-06T19:00:42.634Z,14.55
2018-10-06T19:03:12.015Z,14.43
2018-10-06T19:05:41.167Z,14.34
2018-10-06T19:08:10.428Z,14.31
2018-10-06T19:10:39.728Z,14.29
2018-10-06T19:13:09.007Z,14.22
2018-10-06T19:15:38.349Z,14.23
2018-10-06T19:18:07.546Z,14.24
2018-10-06T19:20:36.803Z,14.11
2018-10-06T19:23:06.042Z,14.10
2018-10-06T19:25:35.339Z,14.09
2018-10-06T19:28:04.605Z,14.10
2018-10-06T19:30:33.820Z,14.15
2018-10-06T19:33:03.068Z,14.15
2018-10-06T19:35:32.319Z,14.16
2018-10-06T19:38:01.588Z,14.22
2018-10-06T19:40:30.863Z,14.27
2018-10-06T19:43:00.153Z,14.25
2018-10-06T19:45:29.443Z,14.13
2018-10-06T19:47:58.741Z,14.07
2018-10-06T19:50:27.965Z,14.06
2018-10-06T19:52:57.188Z,14.09
2018-10-06T19:55:26.447Z,14.01
2018-10-06T19:57:55.712Z,13.91
2018-10-06T20:00:25.034Z,13.73
2018-10-06T20:02:54.259Z,13.67
2018-10-06T20:05:23.572Z,13.70
2018-10-06T20:07:52.843Z,13.70
2018-10-06T20:10:22.071Z,13.71
2018-10-06T20:12:51.295Z,13.68
2018-10-06T20:15:20.562Z,13.77
2018-10-06T20:17:49.780Z,13.87
2018-10-06T20:20:19.004Z,13.88
2018-10-06T20:22:48.218Z,13.95
2018-10-06T20:25:17.436Z,13.98
2018-10-06T20:27:46.689Z,13.90
2018-10-06T20:30:15.914Z,13.87
2018-10-06T20:32:45.154Z,13.83
2018-10-06T20:35:14.386Z,13.80
2018-10-06T20:37:43.786Z,13.83
2018-10-06T20:40:13.091Z,13.84
2018-10-06T20:42:42.311Z,13.83
2018-10-06T20:45:11.539Z,13.77
2018-10-06T20:47:40.760Z,13.69
2018-10-06T20:50:09.982Z,13.61
2018-10-06T20:52:39.213Z,13.53
2018-10-06T20:55:08.478Z,13.45
2018-10-06T20:57:37.707Z,13.48
2018-10-06T21:00:08.156Z,13.57
2018-10-06T21:02:37.382Z,13.63
2018-10-06T21:05:06.627Z,13.57
2018-10-06T21:07:35.867Z,13.46
2018-10-06T21:10:05.108Z,13.32
2018-10-06T21:12:34.359Z,13.20
2018-10-06T21:15:03.654Z,13.14
2018-10-06T21:17:32.915Z,13.12
2018-10-06T21:20:02.156Z,13.16
2018-10-06T21:22:31.487Z,13.17
2018-10-06T21:25:00.703Z,13.18
2018-10-06T21:27:29.926Z,13.18
2018-10-06T21:29:59.159Z,13.13
2018-10-06T21:32:28.383Z,13.01
2018-10-06T21:34:57.596Z,12.93
2018-10-06T21:37:26.838Z,12.81
2018-10-06T21:39:56.090Z,12.68
2018-10-06T21:42:25.404Z,12.55
2018-10-06T21:44:54.623Z,12.54
2018-10-06T21:47:23.841Z,12.50
2018-10-06T21:49:53.092Z,12.47
2018-10-06T21:52:22.365Z,12.44
2018-10-06T21:54:51.567Z,12.41
2018-10-06T21:57:20.799Z,12.39
2018-10-06T21:59:50.024Z,12.42
2018-10-06T22:02:19.260Z,12.46
2018-10-06T22:04:48.529Z,12.46
2018-10-06T22:07:17.728Z,12.57
2018-10-06T22:09:46.935Z,12.64
2018-10-06T22:12:16.175Z,12.62
2018-10-06T22:14:45.405Z,12.44
2018-10-06T22:17:14.640Z,12.32
2018-10-06T22:19:43.874Z,12.25
2018-10-06T22:22:13.102Z,12.40
2018-10-06T22:24:42.339Z,12.60
2018-10-06T22:27:11.631Z,12.74
2018-10-06T22:29:40.857Z,12.75
2018-10-06T22:32:10.072Z,12.60
2018-10-06T22:34:39.304Z,12.45
2018-10-06T22:37:08.554Z,12.29
2018-10-06T22:39:37.808Z,12.15
2018-10-06T22:42:07.132Z,12.19
2018-10-06T22:44:36.433Z,12.23
2018-10-06T22:47:05.685Z,12.28
2018-10-06T22:49:34.995Z,12.20
2018-10-06T22:52:04.278Z,12.13
2018-10-06T22:54:33.583Z,12.07
2018-10-06T22:57:02.928Z,12.00
2018-10-06T22:59:32.137Z,11.95
2018-10-06T23:02:01.441Z,11.99
2018-10-06T23:04:30.695Z,12.03
2018-10-06T23:06:59.956Z,12.05
2018-10-06T23:09:29.227Z,12.05
2018-10-06T23:11:58.523Z,12.06
2018-10-06T23:14:27.764Z,12.02
2018-10-06T23:16:57.051Z,12.00
2018-10-06T23:19:26.354Z,11.99
2018-10-06T23:21:55.656Z,12.02
2018-10-06T23:24:24.921Z,12.07
2018-10-06T23:26:54.371Z,12.18
2018-10-06T23:29:23.895Z,12.30
2018-10-06T23:31:53.177Z,12.45
2018-10-06T23:34:22.457Z,12.56
2018-10-06T23:36:51.729Z,12.58
2018-10-06T23:39:21.047Z,12.55
2018-10-06T23:41:50.382Z,12.51
2018-10-06T23:44:19.653Z,12.49
2018-10-06T23:46:48.952Z,12.48
2018-10-06T23:49:18.194Z,12.52
2018-10-06T23:51:47.437Z,12.54
2018-10-06T23:54:16.687Z,12.57
2018-10-06T23:56:45.973Z,12.56
2018-10-06T23:59:15.219Z,12.50
